Time;durP1;ratioP1;P1;durP2;ratioP2;P2;SDS_P1;SDS_P2;PMS_P1;PMS_P2;Temp;Humidity;BMP_temperature;BMP_pressure;BME280_temperature;BME280_humidity;BME280_pressure;Samples;Min_cycle;Max_cycle;Signal;HPM_P1;HPM_P2
2023/04/29 00:02:15;;;;;;;22.70;13.90;;;;;;;12.75;100.00;99512.66;10352538;28;20042;-73
2023/04/29 00:07:16;;;;;;;30.65;20.35;;;;;;;12.79;100.00;99516.56;10338033;28;20390;-73
2023/04/29 00:12:17;;;;;;;38.25;20.55;;;;;;;12.31;100.00;99426.91;10337188;28;20514;-73
2023/04/29 00:17:17;;;;;;;25.52;17.50;;;;;;;12.56;100.00;99434.31;10337146;28;20058;-73
2023/04/29 00:22:19;;;;;;;21.13;14.98;;;;;;;12.98;100.00;99481.13;10336690;28;20042;-74
2023/04/29 00:27:20;;;;;;;28.67;15.98;;;;;;;12.53;100.00;99416.09;10351842;28;20046;-74
2023/04/29 00:32:21;;;;;;;21.55;14.02;;;;;;;12.98;100.00;99509.59;10335985;28;20045;-74
2023/04/29 00:37:22;;;;;;;20.67;13.50;;;;;;;13.06;100.00;99517.41;10351570;28;20058;-74
2023/04/29 00:42:24;;;;;;;17.95;12.73;;;;;;;13.09;100.00;99527.66;10362847;28;20034;-74
2023/04/29 00:47:25;;;;;;;18.70;11.52;;;;;;;13.11;100.00;99546.97;10375715;28;20524;-73
2023/04/29 00:52:30;;;;;;;14.45;11.63;;;;;;;12.89;100.00;99522.34;10376103;28;20056;-74
2023/04/29 00:57:33;;;;;;;20.10;12.38;;;;;;;12.94;100.00;99511.84;10375494;28;20070;-74
2023/04/29 01:02:34;;;;;;;18.13;13.00;;;;;;;12.94;100.00;99506.53;10374798;28;20137;-74
2023/04/29 01:22:55;;;;;;;24.88;13.35;;;;;;;12.75;100.00;99505.50;10491149;28;20444;-75
2023/04/29 01:27:59;;;;;;;41.53;19.48;;;;;;;12.45;100.00;99453.59;10486266;28;20467;-75
2023/04/29 01:33:12;;;;;;;31.38;17.08;;;;;;;12.44;100.00;99459.91;10448633;28;20051;-75
2023/04/29 01:38:36;;;;;;;22.40;15.25;;;;;;;12.81;100.00;99516.38;10448336;28;20091;-76
2023/04/29 01:43:38;;;;;;;16.25;12.70;;;;;;;12.22;100.00;99451.28;10447966;28;20033;-75
2023/04/29 01:48:39;;;;;;;19.33;11.55;;;;;;;12.49;100.00;99498.25;10464603;28;20048;-74
2023/04/29 01:53:40;;;;;;;20.23;12.85;;;;;;;12.54;100.00;99537.63;10489817;28;20372;-75
2023/04/29 01:58:41;;;;;;;22.42;12.82;;;;;;;12.50;100.00;99528.38;10488765;28;20041;-75
2023/04/29 02:03:42;;;;;;;29.25;14.15;;;;;;;12.46;100.00;99519.16;10488997;28;20040;-76
2023/04/29 02:08:42;;;;;;;18.23;12.10;;;;;;;12.49;100.00;99532.06;10487231;28;20048;-75
2023/04/29 02:13:43;;;;;;;17.15;11.70;;;;;;;12.19;100.00;99508.41;10487803;28;20056;-75
2023/04/29 02:18:44;;;;;;;21.48;13.50;;;;;;;12.38;100.00;99554.75;10486075;28;20133;-75
2023/04/29 02:23:45;;;;;;;15.85;11.68;;;;;;;12.34;100.00;99556.19;10460301;28;20439;-75
2023/04/29 02:28:46;;;;;;;16.13;10.48;;;;;;;12.22;100.00;99550.59;10459962;28;20040;-75
2023/04/29 02:33:47;;;;;;;17.95;13.10;;;;;;;12.25;100.00;99563.53;10460340;28;20045;-75
2023/04/29 02:38:49;;;;;;;17.95;11.75;;;;;;;12.40;100.00;99570.56;10459711;28;20040;-75
2023/04/29 02:43:50;;;;;;;21.63;12.23;;;;;;;12.40;100.00;99544.75;10458936;28;20475;-75
2023/04/29 03:05:14;;;;;;;22.05;12.20;;;;;;;13.16;100.00;99592.50;10531225;28;20435;-75
2023/04/29 03:10:15;;;;;;;47.72;22.90;;;;;;;13.25;100.00;99590.47;10505341;28;20044;-76
2023/04/29 03:15:16;;;;;;;45.22;20.08;;;;;;;13.40;100.00;99593.78;10490356;28;20491;-74
2023/04/29 03:20:17;;;;;;;38.88;20.35;;;;;;;13.53;100.00;99597.50;10488879;28;20123;-75
2023/04/29 03:25:17;;;;;;;28.65;15.70;;;;;;;13.67;100.00;99594.59;10488632;28;20136;-74
2023/04/29 03:30:18;;;;;;;28.10;16.48;;;;;;;13.78;100.00;99608.34;10448952;28;20083;-74
2023/04/29 03:35:19;;;;;;;23.70;14.98;;;;;;;13.87;100.00;99621.25;10447155;28;20103;-74
2023/04/29 03:40:20;;;;;;;20.48;14.50;;;;;;;13.91;100.00;99611.84;10446892;28;20098;-74
2023/04/29 03:45:21;;;;;;;21.30;13.75;;;;;;;13.70;100.00;99556.00;10461501;28;20504;-75
2023/04/29 03:50:22;;;;;;;23.63;15.10;;;;;;;14.14;100.00;99603.34;10446453;28;20049;-74
2023/04/29 03:55:23;;;;;;;18.70;14.00;;;;;;;14.46;100.00;99635.53;10446290;28;20048;-74
2023/04/29 04:00:25;;;;;;;25.60;17.48;;;;;;;14.54;100.00;99632.66;10446046;28;20037;-73
2023/04/29 04:05:26;;;;;;;28.60;19.52;;;;;;;14.57;100.00;99626.91;10433902;28;20046;-74
2023/04/29 04:10:27;;;;;;;19.02;14.30;;;;;;;14.69;100.00;99637.75;10418233;28;20634;-76
2023/04/29 04:15:28;;;;;;;23.63;11.88;;;;;;;14.78;100.00;99639.16;10418693;28;20129;-76
2023/04/29 04:20:28;;;;;;;16.92;11.68;;;;;;;14.56;100.00;99571.78;10417826;28;20059;-76
2023/04/29 04:25:29;;;;;;;17.70;11.20;;;;;;;15.06;100.00;99608.56;10419281;28;20056;-74
2023/04/29 04:30:30;;;;;;;17.75;11.10;;;;;;;15.24;100.00;99600.63;10417694;28;20045;-74
2023/04/29 04:35:31;;;;;;;14.25;10.18;;;;;;;15.71;100.00;99605.66;10435368;28;20522;-74
2023/04/29 04:40:32;;;;;;;15.23;9.40;;;;;;;16.34;99.30;99632.22;10459163;28;20091;-74
2023/04/29 04:45:33;;;;;;;18.88;9.80;;;;;;;16.70;97.68;99646.66;10447162;28;20080;-74
2023/04/29 04:50:33;;;;;;;18.77;9.38;;;;;;;16.77;96.86;99631.31;10417336;28;20426;-74
2023/04/29 04:55:35;;;;;;;12.50;9.52;;;;;;;16.78;96.76;99608.00;10433488;28;20043;-74
2023/04/29 05:00:36;;;;;;;15.85;9.35;;;;;;;16.81;96.60;99586.09;10436809;28;20057;-74
2023/04/29 05:05:36;;;;;;;13.18;8.43;;;;;;;17.31;95.70;99620.66;10415798;28;20099;-74
2023/04/29 05:10:37;;;;;;;16.23;8.57;;;;;;;17.78;94.36;99615.41;10415854;28;20049;-74
2023/04/29 05:15:38;;;;;;;14.18;8.02;;;;;;;17.84;93.55;99584.13;10414909;28;20045;-74
2023/04/29 05:20:39;;;;;;;14.35;7.85;;;;;;;18.10;92.96;99610.50;10415728;28;20048;-74
2023/04/29 05:25:40;;;;;;;10.40;7.50;;;;;;;18.29;92.08;99610.38;10415727;28;20045;-74
2023/04/29 05:30:41;;;;;;;13.70;8.15;;;;;;;18.51;91.41;99619.41;10398296;28;20143;-73
2023/04/29 05:35:41;;;;;;;14.10;8.13;;;;;;;18.87;89.80;99604.81;10414940;28;20076;-73
2023/04/29 05:40:42;;;;;;;17.25;7.35;;;;;;;19.05;88.50;99563.44;10414936;28;20041;-72
2023/04/29 05:45:46;;;;;;;15.30;7.22;;;;;;;19.36;86.09;99540.53;10415495;28;20046;-75
2023/04/29 05:50:47;;;;;;;15.15;6.25;;;;;;;19.94;84.99;99557.31;10414570;28;20091;-73
2023/04/29 05:55:49;;;;;;;10.23;6.13;;;;;;;20.05;84.06;99545.59;10414986;28;20126;-74
2023/04/29 06:00:51;;;;;;;14.05;6.45;;;;;;;20.05;83.85;99542.91;10414388;28;20049;-73
2023/04/29 06:05:52;;;;;;;11.13;6.18;;;;;;;19.90;83.81;99541.91;10413958;28;20132;-74
2023/04/29 06:10:53;;;;;;;10.05;5.30;;;;;;;19.59;83.54;99496.44;10414062;28;20049;-74
2023/04/29 06:15:53;;;;;;;11.77;6.20;;;;;;;19.98;83.95;99563.03;10413744;28;20045;-75
2023/04/29 06:20:54;;;;;;;12.98;5.65;;;;;;;19.95;84.07;99541.94;10418557;28;20041;-74
2023/04/29 06:25:56;;;;;;;10.98;5.65;;;;;;;19.98;84.00;99528.81;10439507;28;20516;-74
2023/04/29 06:30:57;;;;;;;14.80;7.80;;;;;;;20.21;83.39;99543.09;10413713;28;20497;-73
2023/04/29 06:35:58;;;;;;;17.33;7.22;;;;;;;19.88;82.94;99479.34;10425945;28;20038;-73
2023/04/29 06:41:02;;;;;;;27.83;8.27;;;;;;;20.45;82.26;99514.78;10438987;28;20079;-71
2023/04/29 06:46:03;;;;;;;17.13;7.53;;;;;;;20.54;81.14;99525.19;10426458;28;20041;-71
2023/04/29 06:51:03;;;;;;;15.32;8.77;;;;;;;20.57;80.66;99521.97;10412407;28;20104;-71
2023/04/29 06:56:05;;;;;;;18.65;8.52;;;;;;;20.63;79.31;99510.16;10413970;28;20099;-71
2023/04/29 07:01:07;;;;;;;23.85;8.48;;;;;;;20.85;79.61;99523.59;10428073;28;20106;-71
2023/04/29 07:06:08;;;;;;;17.73;7.80;;;;;;;20.93;78.62;99513.16;10411946;28;20064;-71
2023/04/29 07:11:08;;;;;;;15.25;8.35;;;;;;;20.80;77.83;99510.88;10369796;28;20053;-70
2023/04/29 07:16:20;;;;;;;16.25;8.20;;;;;;;20.59;76.35;99501.75;10372211;28;20049;-70
2023/04/29 07:21:21;;;;;;;21.00;10.82;;;;;;;20.97;76.84;99532.38;10371087;28;20088;-71
2023/04/29 07:26:22;;;;;;;18.00;9.75;;;;;;;21.16;76.32;99524.69;10372299;28;20060;-71
2023/04/29 07:31:22;;;;;;;16.40;8.68;;;;;;;21.14;75.62;99516.03;10371099;28;20413;-71
2023/04/29 07:36:23;;;;;;;19.63;8.75;;;;;;;21.11;75.24;99497.63;10371241;28;20045;-71
2023/04/29 07:41:24;;;;;;;14.70;8.63;;;;;;;21.12;75.52;99519.00;10378476;28;20042;-70
2023/04/29 07:46:25;;;;;;;18.67;8.68;;;;;;;20.73;75.13;99456.28;10378443;28;20038;-72
2023/04/29 07:51:27;;;;;;;39.75;9.55;;;;;;;21.14;75.58;99521.44;10377924;28;20129;-71
2023/04/29 07:56:28;;;;;;;20.75;8.85;;;;;;;20.86;75.69;99466.66;10378188;28;20038;-71
2023/04/29 08:01:29;;;;;;;13.40;7.32;;;;;;;21.52;74.20;99506.88;10378753;28;20069;-71
2023/04/29 08:06:30;;;;;;;26.52;9.98;;;;;;;21.82;73.36;99506.25;10369021;28;20042;-71
2023/04/29 08:11:31;;;;;;;94.72;43.50;;;;;;;21.65;72.77;99444.25;10353698;28;20053;-71
2023/04/29 08:16:32;;;;;;;121.10;49.88;;;;;;;22.33;71.51;99490.25;10341334;28;20409;-72
2023/04/29 08:21:33;;;;;;;35.13;14.07;;;;;;;22.74;70.38;99479.53;10377805;28;20099;-71
2023/04/29 08:26:34;;;;;;;16.85;9.02;;;;;;;22.88;69.25;99473.56;10361110;28;20038;-71
2023/04/29 08:31:34;;;;;;;83.82;21.83;;;;;;;22.88;69.50;99451.91;10343532;28;20050;-72
2023/04/29 08:36:37;;;;;;;21.60;11.13;;;;;;;22.57;68.67;99395.03;10336716;28;20133;-71
2023/04/29 08:41:38;;;;;;;18.55;8.15;;;;;;;22.65;68.38;99418.88;10335802;28;20556;-72
2023/04/29 08:46:39;;;;;;;13.40;7.85;;;;;;;23.10;68.03;99417.25;10335742;28;20034;-71
2023/04/29 08:51:40;;;;;;;12.93;7.22;;;;;;;23.49;65.19;99383.31;10335650;28;20587;-71
2023/04/29 08:56:45;;;;;;;630.40;405.77;;;;;;;23.85;64.55;99397.53;10335750;28;20088;-72
2023/04/29 09:01:50;;;;;;;116.22;62.25;;;;;;;23.98;64.33;99377.94;10335068;28;20089;-72
2023/04/29 09:06:54;;;;;;;26.15;14.18;;;;;;;24.09;62.72;99368.66;10335247;28;20394;-71
2023/04/29 09:11:55;;;;;;;13.70;7.95;;;;;;;24.45;61.97;99376.56;10349542;28;20151;-71
2023/04/29 09:16:56;;;;;;;15.13;6.60;;;;;;;24.41;61.28;99374.66;10355946;28;20068;-71
2023/04/29 09:21:58;;;;;;;11.18;6.15;;;;;;;24.22;61.62;99369.13;10375767;28;20046;-71
2023/04/29 09:26:59;;;;;;;18.70;7.20;;;;;;;24.44;59.85;99285.38;10357783;28;20406;-71
2023/04/29 09:32:00;;;;;;;16.08;7.10;;;;;;;25.32;58.99;99335.00;10334445;28;20038;-72
2023/04/29 09:37:00;;;;;;;17.10;7.28;;;;;;;25.37;57.31;99347.72;10334698;28;20043;-72
2023/04/29 09:42:02;;;;;;;30.70;10.18;;;;;;;25.12;57.38;99335.22;10333905;28;20061;-72
2023/04/29 09:47:07;;;;;;;15.43;6.30;;;;;;;24.92;57.29;99369.66;10333782;28;20062;-71
2023/04/29 09:52:15;;;;;;;24.13;5.50;;;;;;;24.97;57.98;99361.44;10333167;28;20050;-71
2023/04/29 09:57:17;;;;;;;8.38;5.55;;;;;;;24.97;57.46;99353.28;10333409;28;20030;-71
2023/04/29 10:02:18;;;;;;;31.37;14.53;;;;;;;25.05;56.93;99341.00;10332505;28;20069;-73
2023/04/29 10:07:20;;;;;;;12.98;6.78;;;;;;;25.17;56.92;99332.47;10337122;28;20057;-72
2023/04/29 10:12:21;;;;;;;16.40;6.03;;;;;;;24.83;56.43;99255.38;10355962;28;20404;-71
2023/04/29 10:17:31;;;;;;;14.90;5.38;;;;;;;25.29;55.92;99332.88;10372972;28;20042;-71
2023/04/29 10:22:48;;;;;;;14.90;6.22;;;;;;;24.79;55.83;99264.38;10369531;28;20121;-71
2023/04/29 10:27:52;;;;;;;18.73;6.18;;;;;;;25.01;56.61;99340.78;10332764;28;20054;-71
2023/04/29 10:32:54;;;;;;;10.80;5.45;;;;;;;24.52;57.22;99327.38;10332080;28;20042;-71
2023/04/29 10:37:58;;;;;;;9.02;5.55;;;;;;;24.66;57.39;99341.91;10332602;28;20061;-71
2023/04/29 10:43:00;;;;;;;8.45;5.50;;;;;;;24.36;57.00;99294.09;10332048;28;20045;-72
2023/04/29 10:48:00;;;;;;;9.85;5.53;;;;;;;24.79;57.11;99349.38;10332621;28;20062;-71
2023/04/29 10:53:03;;;;;;;10.80;5.90;;;;;;;24.38;57.40;99270.22;10332056;28;20073;-71
2023/04/29 10:58:05;;;;;;;17.77;8.03;;;;;;;25.04;56.84;99352.97;10331651;28;20441;-72
2023/04/29 11:03:05;;;;;;;18.35;7.82;;;;;;;25.13;57.23;99358.56;10331632;28;20418;-72
2023/04/29 11:08:11;;;;;;;12.15;7.13;;;;;;;24.50;55.70;99281.53;10330827;28;20049;-73
2023/04/29 11:13:25;;;;;;;11.05;5.70;;;;;;;24.53;55.58;99274.69;10344010;28;20053;-70
2023/04/29 11:18:27;;;;;;;25.88;9.80;;;;;;;25.12;55.66;99313.47;10373027;28;20045;-69
2023/04/29 11:23:28;;;;;;;19.37;8.23;;;;;;;25.56;55.30;99317.88;10343890;28;20046;-69
2023/04/29 11:28:30;;;;;;;20.02;10.55;;;;;;;25.63;54.90;99337.34;10358117;28;20364;-70
2023/04/29 11:33:32;;;;;;;15.65;6.40;;;;;;;25.64;54.52;99347.16;10337679;28;20517;-70
2023/04/29 11:38:35;;;;;;;10.80;6.18;;;;;;;25.50;54.92;99331.53;10339439;28;20090;-72
2023/04/29 11:43:38;;;;;;;11.70;5.73;;;;;;;25.31;54.28;99346.16;10338231;28;20084;-70
2023/04/29 11:48:49;;;;;;;;;;;;;;;25.58;54.52;99340.97;10339109;28;20065;-70
2023/04/29 11:53:50;;;;;;;29.00;10.75;;;;;;;25.21;55.57;99328.88;10338546;28;19941;-70
2023/04/29 11:58:58;;;;;;;50.33;26.23;;;;;;;25.09;55.25;99314.06;10337381;28;20105;-70
2023/04/29 12:03:59;;;;;;;16.67;7.80;;;;;;;25.05;55.40;99300.25;10338120;28;20058;-70
2023/04/29 12:09:00;;;;;;;28.27;14.20;;;;;;;24.93;54.89;99276.19;10337735;28;20042;-71
2023/04/29 12:14:04;;;;;;;20.45;6.97;;;;;;;24.97;55.30;99274.50;10338390;28;20089;-69
2023/04/29 12:19:06;;;;;;;24.88;10.18;;;;;;;25.02;55.17;99298.91;10337717;28;20045;-70
2023/04/29 12:24:08;;;;;;;23.70;6.70;;;;;;;25.01;54.93;99310.88;10336618;28;20081;-70
2023/04/29 12:29:10;;;;;;;23.75;6.38;;;;;;;24.94;55.60;99304.16;10336217;28;20039;-70
2023/04/29 12:34:10;;;;;;;13.52;6.85;;;;;;;24.90;54.94;99297.69;10336733;28;20049;-70
2023/04/29 12:39:12;;;;;;;21.65;9.68;;;;;;;24.77;54.95;99312.78;10368556;28;20363;-70
2023/04/29 12:44:14;;;;;;;28.90;12.90;;;;;;;24.71;55.83;99300.31;10337557;28;20052;-70
2023/04/29 12:49:17;;;;;;;10.70;5.82;;;;;;;24.57;56.00;99300.19;10335667;28;20074;-70
2023/04/29 12:54:18;;;;;;;9.20;5.70;;;;;;;24.39;55.80;99301.69;10335647;28;20050;-69
2023/04/29 12:59:19;;;;;;;15.43;6.15;;;;;;;24.45;56.23;99319.56;10336505;28;20044;-70
2023/04/29 13:04:20;;;;;;;16.60;6.10;;;;;;;24.38;55.72;99310.94;10335886;28;20458;-70
2023/04/29 13:09:21;;;;;;;10.65;4.68;;;;;;;24.46;56.22;99314.94;10335395;28;20042;-70
2023/04/29 13:14:22;;;;;;;10.52;4.82;;;;;;;24.54;55.36;99336.88;10335854;28;20073;-70
2023/04/29 13:19:22;;;;;;;23.52;5.70;;;;;;;24.45;56.07;99346.72;10334340;28;20034;-70
2023/04/29 13:24:23;;;;;;;10.13;5.13;;;;;;;23.90;55.39;99284.41;10335318;28;20070;-70
2023/04/29 13:29:25;;;;;;;8.98;4.28;;;;;;;24.17;56.14;99344.72;10333870;28;20545;-70
2023/04/29 13:34:26;;;;;;;9.95;5.65;;;;;;;24.07;56.20;99327.41;10333933;28;20482;-70
2023/04/29 13:39:27;;;;;;;8.82;5.00;;;;;;;24.09;56.05;99333.38;10333188;28;20053;-70
2023/04/29 13:44:28;;;;;;;9.13;5.22;;;;;;;23.19;55.98;99201.59;10334239;28;20050;-70
2023/04/29 13:49:29;;;;;;;17.20;5.78;;;;;;;23.96;56.95;99353.00;10333869;28;20514;-71
2023/04/29 13:54:30;;;;;;;12.48;5.28;;;;;;;23.46;59.99;99336.69;10332896;28;20037;-70
2023/04/29 13:59:32;;;;;;;15.63;5.03;;;;;;;23.11;61.69;99339.50;10333625;28;20120;-69
2023/04/29 14:04:32;;;;;;;16.88;6.30;;;;;;;22.64;63.08;99308.94;10332636;28;20073;-69
2023/04/29 14:09:33;;;;;;;16.00;5.28;;;;;;;22.47;63.84;99333.63;10333268;28;20042;-68
2023/04/29 14:14:34;;;;;;;16.92;5.35;;;;;;;22.20;64.55;99319.53;10332427;28;20379;-68
2023/04/29 14:19:35;;;;;;;16.77;6.07;;;;;;;22.00;65.42;99307.56;10333347;28;20049;-68
2023/04/29 14:24:38;;;;;;;16.05;5.45;;;;;;;21.85;66.41;99323.78;10357450;28;20067;-70
2023/04/29 14:29:38;;;;;;;12.73;4.80;;;;;;;21.64;66.67;99325.63;10361484;28;20065;-70
2023/04/29 14:34:39;;;;;;;13.60;5.13;;;;;;;21.55;67.26;99354.22;10340805;28;20077;-72
2023/04/29 14:39:40;;;;;;;8.13;4.85;;;;;;;21.40;67.54;99363.88;10342890;28;20042;-69
2023/04/29 14:44:41;;;;;;;12.25;5.18;;;;;;;20.92;67.51;99306.34;10331375;28;20054;-69
2023/04/29 14:49:42;;;;;;;11.35;4.78;;;;;;;20.77;67.77;99308.16;10332230;28;20545;-70
2023/04/29 14:54:42;;;;;;;11.30;5.45;;;;;;;21.10;67.86;99391.50;10331094;28;20121;-70
2023/04/29 14:59:43;;;;;;;11.98;4.53;;;;;;;21.01;67.49;99394.97;10332246;28;20037;-71
2023/04/29 15:04:45;;;;;;;13.25;4.80;;;;;;;20.80;67.88;99381.31;10341677;28;20399;-70
2023/04/29 15:09:46;;;;;;;10.55;5.00;;;;;;;20.73;69.31;99386.09;10331423;28;20125;-69
2023/04/29 15:14:47;;;;;;;9.18;4.15;;;;;;;20.48;70.57;99422.56;10331034;28;20565;-70
2023/04/29 15:19:47;;;;;;;20.30;6.05;;;;;;;19.77;71.07;99425.31;10341250;28;20046;-70
2023/04/29 15:24:50;;;;;;;10.55;6.38;;;;;;;18.27;72.52;99317.53;10331922;28;20116;-69
2023/04/29 15:29:53;;;;;;;9.03;5.63;;;;;;;17.78;72.33;99293.06;10342423;28;20043;-70
2023/04/29 15:34:54;;;;;;;10.45;3.67;;;;;;;18.34;71.81;99441.09;10331443;28;20038;-69
2023/04/29 15:39:57;;;;;;;7.13;2.80;;;;;;;18.11;71.53;99440.13;10330425;28;20043;-69
2023/04/29 15:44:58;;;;;;;10.00;2.97;;;;;;;17.99;71.75;99445.53;10330923;28;20050;-70
2023/04/29 15:49:59;;;;;;;5.82;2.63;;;;;;;17.85;72.29;99462.16;10330333;28;20450;-70
2023/04/29 15:54:59;;;;;;;5.30;3.05;;;;;;;17.68;72.72;99456.66;10330732;28;20034;-69
2023/04/29 16:00:00;;;;;;;6.78;2.53;;;;;;;17.64;72.86;99461.69;10333518;28;20042;-70
2023/04/29 16:05:02;;;;;;;7.32;2.50;;;;;;;17.47;72.92;99450.88;10338331;28;20077;-69
2023/04/29 16:28:49;;;;;;;4.00;1.70;;;;;;;17.53;72.16;99462.53;10414950;28;20470;-73
2023/04/29 16:33:49;;;;;;;5.88;2.45;;;;;;;17.55;71.54;99477.34;10431868;28;20090;-71
2023/04/29 16:51:25;;;;;;;5.63;1.63;;;;;;;17.55;70.70;99482.72;10482302;28;20451;-73
2023/04/29 16:56:26;;;;;;;6.97;1.80;;;;;;;17.64;70.33;99507.34;10442070;28;20492;-72
2023/04/29 17:01:27;;;;;;;2.13;0.80;;;;;;;17.55;71.03;99504.19;10440664;28;20068;-72
2023/04/29 17:06:27;;;;;;;4.95;1.08;;;;;;;17.49;71.23;99512.38;10440498;28;20041;-72
2023/04/29 17:11:28;;;;;;;4.43;1.30;;;;;;;17.39;71.63;99494.16;10441466;28;20041;-73
2023/04/29 17:16:29;;;;;;;6.03;1.40;;;;;;;16.87;72.37;99417.03;10438888;28;20048;-71
2023/04/29 17:21:31;;;;;;;5.15;1.10;;;;;;;17.11;73.29;99465.31;10440524;28;20033;-70
2023/04/29 17:26:32;;;;;;;7.55;1.15;;;;;;;17.06;73.37;99484.81;10440666;28;20564;-71
2023/04/29 17:31:43;;;;;;;3.42;1.13;;;;;;;16.75;73.39;99440.28;10440639;28;20037;-72
2023/04/29 17:36:46;;;;;;;6.18;1.65;;;;;;;17.14;73.67;99505.13;10440111;28;20117;-72
2023/04/29 17:41:47;;;;;;;5.03;1.80;;;;;;;17.09;74.17;99521.09;10439777;28;20492;-72
2023/04/29 17:46:48;;;;;;;2.08;1.15;;;;;;;16.99;74.64;99586.06;10439667;28;20061;-72
2023/04/29 17:51:49;;;;;;;3.13;0.98;;;;;;;16.87;74.73;99583.34;10399190;28;20049;-72
2023/04/29 17:56:49;;;;;;;2.58;1.27;;;;;;;16.92;74.87;99579.94;10391577;28;20045;-72
2023/04/29 18:01:50;;;;;;;2.25;0.98;;;;;;;17.02;74.54;99555.25;10409978;28;20064;-72
2023/04/29 18:06:51;;;;;;;3.58;1.58;;;;;;;16.94;75.11;99564.44;10408932;28;20046;-72
2023/04/29 18:11:51;;;;;;;5.60;1.30;;;;;;;16.92;74.98;99531.66;10399688;28;20120;-71
2023/04/29 18:16:52;;;;;;;5.30;1.52;;;;;;;16.88;75.24;99525.94;10409140;28;20041;-72
2023/04/29 18:21:58;;;;;;;9.80;1.58;;;;;;;16.49;75.17;99460.28;10410767;28;20124;-71
2023/04/29 18:26:58;;;;;;;7.65;1.40;;;;;;;16.65;76.11;99499.00;10410413;28;20042;-71
2023/04/29 18:31:59;;;;;;;4.20;1.30;;;;;;;16.23;76.32;99442.69;10410755;28;20045;-71
2023/04/29 18:37:00;;;;;;;6.07;1.10;;;;;;;16.47;76.75;99502.56;10410005;28;20042;-71
2023/04/29 18:42:03;;;;;;;4.47;1.70;;;;;;;16.54;77.00;99513.19;10409860;28;20563;-71
2023/04/29 18:47:04;;;;;;;5.07;1.42;;;;;;;16.44;77.60;99546.72;10409862;28;20053;-71
2023/04/29 18:52:04;;;;;;;2.65;1.30;;;;;;;16.18;77.90;99544.34;10410919;28;20076;-71
2023/04/29 18:57:05;;;;;;;2.00;0.93;;;;;;;16.38;77.62;99595.88;10409624;28;20078;-71
2023/04/29 19:02:07;;;;;;;3.08;1.15;;;;;;;16.15;77.43;99528.72;10409381;28;20093;-71
2023/04/29 19:07:08;;;;;;;1.73;0.60;;;;;;;16.17;77.35;99514.06;10409117;28;20041;-70
2023/04/29 19:12:09;;;;;;;1.25;0.50;;;;;;;15.89;77.27;99489.69;10409633;28;20120;-70
2023/04/29 19:17:10;;;;;;;2.88;0.85;;;;;;;15.55;77.71;99469.63;10408637;28;20045;-70
2023/04/29 19:22:12;;;;;;;2.47;0.80;;;;;;;16.30;78.23;99593.47;10405631;28;20521;-71
2023/04/29 19:27:12;;;;;;;1.80;0.85;;;;;;;16.16;79.31;99579.44;10408746;28;20069;-70
2023/04/29 19:32:13;;;;;;;5.38;1.50;;;;;;;16.01;80.09;99578.16;10408780;28;20457;-70
2023/04/29 19:37:14;;;;;;;3.28;1.80;;;;;;;15.00;80.48;99457.78;10408843;28;20071;-70
2023/04/29 19:42:15;;;;;;;2.85;1.80;;;;;;;15.70;80.93;99582.56;10408461;28;20038;-70
2023/04/29 19:47:15;;;;;;;3.28;1.70;;;;;;;15.60;81.19;99566.16;10407452;28;20122;-70
2023/04/29 19:52:16;;;;;;;2.83;1.85;;;;;;;15.51;81.25;99554.91;10407742;28;20136;-70
2023/04/29 19:57:17;;;;;;;5.72;2.00;;;;;;;15.34;81.44;99529.72;10407236;28;20045;-70
2023/04/29 20:02:18;;;;;;;3.92;2.38;;;;;;;15.29;82.28;99492.94;10406403;28;20496;-70
2023/04/29 20:07:19;;;;;;;5.60;3.10;;;;;;;15.22;83.31;99501.00;10407849;28;20072;-71
2023/04/29 20:12:20;;;;;;;3.90;2.70;;;;;;;15.10;84.29;99537.53;10406843;28;20045;-71
2023/04/29 20:17:20;;;;;;;4.75;3.15;;;;;;;14.94;85.88;99603.06;10406325;28;20416;-71
2023/04/29 20:22:21;;;;;;;6.05;2.70;;;;;;;14.98;86.32;99612.28;10406680;28;20041;-70
2023/04/29 20:27:22;;;;;;;3.53;2.38;;;;;;;14.95;86.49;99617.25;10407388;28;20048;-70
2023/04/29 20:32:23;;;;;;;3.08;2.20;;;;;;;14.93;86.67;99609.47;10406825;28;20041;-69
2023/04/29 20:37:24;;;;;;;4.03;2.40;;;;;;;14.87;87.17;99606.78;10407200;28;20073;-70
2023/04/29 20:42:25;;;;;;;4.05;2.63;;;;;;;14.80;87.54;99577.44;10406492;28;20109;-70
2023/04/29 20:47:27;;;;;;;3.70;2.60;;;;;;;14.85;87.37;99615.06;10407043;28;20462;-70
2023/04/29 20:52:28;;;;;;;3.35;2.47;;;;;;;14.68;87.60;99598.66;10406620;28;20045;-70
2023/04/29 20:57:28;;;;;;;3.20;2.05;;;;;;;14.83;87.67;99611.75;10406253;28;20055;-69
2023/04/29 21:02:29;;;;;;;3.28;1.70;;;;;;;14.78;87.46;99598.22;10406214;28;20049;-69
2023/04/29 21:07:30;;;;;;;2.97;2.00;;;;;;;14.64;87.44;99594.78;10406569;28;20400;-70
2023/04/29 21:12:31;;;;;;;3.97;1.70;;;;;;;14.74;87.57;99610.38;10406492;28;20069;-69
2023/04/29 21:17:32;;;;;;;1.85;1.20;;;;;;;14.75;87.57;99668.19;10405625;28;20140;-70
2023/04/29 21:22:32;;;;;;;2.65;1.20;;;;;;;14.78;87.23;99659.72;10406223;28;20034;-70
2023/04/29 21:27:34;;;;;;;2.42;0.93;;;;;;;14.74;87.12;99647.78;10411915;28;20076;-69
2023/04/29 21:32:35;;;;;;;1.75;1.10;;;;;;;14.74;86.96;99645.13;10412995;28;20042;-70
2023/04/29 21:37:36;;;;;;;1.90;0.98;;;;;;;14.73;87.23;99622.09;10412510;28;20045;-71
2023/04/29 21:42:37;;;;;;;1.60;0.95;;;;;;;14.74;87.18;99615.72;10412267;28;20440;-70
2023/04/29 21:47:38;;;;;;;2.55;1.25;;;;;;;14.62;87.41;99567.44;10411929;28;20065;-70
2023/04/29 21:52:39;;;;;;;3.15;1.20;;;;;;;14.18;87.75;99526.31;10412068;28;20132;-70
2023/04/29 21:57:39;;;;;;;1.70;1.00;;;;;;;14.14;87.46;99515.22;10412606;28;20044;-70
2023/04/29 22:02:42;;;;;;;2.50;0.90;;;;;;;14.50;87.13;99566.44;10411435;28;20041;-70
2023/04/29 22:07:43;;;;;;;4.93;1.38;;;;;;;14.48;86.94;99564.00;10412040;28;20461;-70
2023/04/29 22:12:43;;;;;;;2.75;1.10;;;;;;;14.53;86.25;99590.91;10411902;28;20120;-70
2023/04/29 22:17:44;;;;;;;0.95;0.60;;;;;;;14.12;85.60;99535.16;10411315;28;20051;-70
2023/04/29 22:22:45;;;;;;;1.35;0.70;;;;;;;14.52;84.72;99612.53;10410096;28;20102;-70
2023/04/29 22:27:47;;;;;;;3.13;0.88;;;;;;;14.31;84.11;99582.34;10411319;28;20046;-69
2023/04/29 22:32:48;;;;;;;1.80;0.95;;;;;;;14.42;82.89;99607.59;10411072;28;20038;-69
2023/04/29 22:37:49;;;;;;;1.77;1.10;;;;;;;14.32;82.49;99618.72;10410621;28;20045;-70
2023/04/29 22:42:50;;;;;;;6.55;1.40;;;;;;;14.26;82.29;99624.09;10410274;28;20041;-70
2023/04/29 22:47:51;;;;;;;3.67;1.33;;;;;;;14.23;82.41;99637.84;10410476;28;20595;-70
2023/04/29 22:52:51;;;;;;;3.97;1.67;;;;;;;14.20;82.21;99635.59;10410400;28;20072;-69
2023/04/29 22:57:52;;;;;;;2.03;1.38;;;;;;;14.03;81.92;99619.19;10410451;28;20386;-69
2023/04/29 23:02:53;;;;;;;4.45;2.00;;;;;;;13.83;82.03;99579.19;10410281;28;20041;-70
2023/04/29 23:07:54;;;;;;;3.60;1.42;;;;;;;14.19;81.88;99639.31;10410603;28;20484;-69
2023/04/29 23:12:55;;;;;;;2.30;1.40;;;;;;;14.18;82.01;99659.03;10409989;28;20049;-70
2023/04/29 23:17:56;;;;;;;2.30;1.48;;;;;;;13.70;82.14;99583.53;10409288;28;20519;-70
2023/04/29 23:22:57;;;;;;;2.67;1.48;;;;;;;14.13;82.15;99649.78;10409261;28;20042;-69
2023/04/29 23:27:58;;;;;;;2.60;1.70;;;;;;;14.03;82.40;99657.41;10408699;28;20033;-70
2023/04/29 23:32:59;;;;;;;2.25;1.38;;;;;;;13.43;82.19;99552.50;10407546;28;20071;-70
2023/04/29 23:37:59;;;;;;;2.47;1.50;;;;;;;14.06;82.33;99662.34;10408511;28;20124;-70
2023/04/29 23:43:00;;;;;;;3.05;2.10;;;;;;;13.53;82.17;99554.78;10409553;28;20049;-70
2023/04/29 23:48:01;;;;;;;5.35;2.10;;;;;;;13.97;82.63;99628.88;10406666;28;20049;-70
2023/04/29 23:53:02;;;;;;;8.57;2.35;;;;;;;14.02;82.46;99625.56;10376099;28;20087;-69
2023/04/29 23:58:03;;;;;;;3.35;2.05;;;;;;;14.02;82.83;99630.91;10367035;28;20045;-69
